Time;durP1;ratioP1;P1;durP2;ratioP2;P2;SDS_P1;SDS_P2;PMS_P1;PMS_P2;Temp;Humidity;BMP_temperature;BMP_pressure;BME280_temperature;BME280_humidity;BME280_pressure;Samples;Min_cycle;Max_cycle;Signal;HPM_P1;HPM_P2
2021/12/30 00:01:09;;;;;;;245.10;226.70;;;11.00;99.90;;;;;;5001510;28;20232;-80
2021/12/30 00:03:35;;;;;;;243.17;225.83;;;11.10;99.90;;;;;;5000522;28;20724;-80
2021/12/30 00:06:01;;;;;;;245.57;227.20;;;11.10;99.90;;;;;;5000484;28;20318;-81
2021/12/30 00:08:27;;;;;;;242.00;223.80;;;11.10;99.90;;;;;;5001883;28;20189;-82
2021/12/30 00:10:53;;;;;;;238.57;219.57;;;11.10;99.90;;;;;;4984823;28;20184;-80
2021/12/30 00:13:20;;;;;;;230.50;211.53;;;11.20;99.90;;;;;;5002246;28;20212;-81
2021/12/30 00:15:47;;;;;;;243.80;225.40;;;11.20;99.90;;;;;;5007650;28;20513;-81
2021/12/30 00:18:13;;;;;;;237.97;219.70;;;11.20;99.90;;;;;;4987159;28;20227;-82
2021/12/30 00:20:39;;;;;;;240.90;223.50;;;11.20;99.90;;;;;;5003567;28;20278;-81
2021/12/30 00:23:07;;;;;;;239.40;221.13;;;11.20;99.90;;;;;;5005772;28;20205;-81
2021/12/30 00:25:39;;;;;;;243.13;226.07;;;11.20;99.90;;;;;;4988806;28;20213;-81
2021/12/30 00:28:18;;;;;;;245.20;227.13;;;11.30;99.90;;;;;;5003578;28;20408;-81
2021/12/30 00:30:47;;;;;;;243.67;226.10;;;11.30;99.90;;;;;;5007348;28;20228;-81
2021/12/30 00:33:13;;;;;;;243.60;226.87;;;11.30;99.90;;;;;;5004161;28;20678;-80
2021/12/30 00:35:39;;;;;;;244.43;226.87;;;11.30;99.90;;;;;;5005004;28;20200;-81
2021/12/30 00:38:05;;;;;;;244.53;227.63;;;11.40;99.90;;;;;;5019477;28;20316;-83
2021/12/30 00:40:31;;;;;;;245.37;227.10;;;11.40;99.90;;;;;;4994419;28;20207;-80
2021/12/30 00:42:59;;;;;;;247.00;229.73;;;11.40;99.90;;;;;;4988581;28;20689;-81
2021/12/30 00:45:26;;;;;;;241.20;224.50;;;11.40;99.90;;;;;;4986485;28;20237;-81
2021/12/30 00:47:51;;;;;;;243.77;226.57;;;11.50;99.90;;;;;;4988407;28;20200;-82
2021/12/30 00:50:18;;;;;;;247.53;229.10;;;11.50;99.90;;;;;;4987681;28;20188;-82
2021/12/30 00:52:44;;;;;;;242.60;225.67;;;11.50;99.90;;;;;;4974934;28;20185;-80
2021/12/30 00:55:10;;;;;;;245.83;228.37;;;11.50;99.90;;;;;;4995980;28;20211;-80
2021/12/30 00:57:36;;;;;;;248.23;230.83;;;11.60;99.90;;;;;;5004614;28;20664;-80
2021/12/30 01:00:06;;;;;;;250.03;231.23;;;11.60;99.90;;;;;;4987771;28;20241;-80
2021/12/30 01:02:32;;;;;;;249.23;231.87;;;11.60;99.90;;;;;;5001419;28;20193;-82
2021/12/30 01:04:58;;;;;;;248.93;231.57;;;11.60;99.90;;;;;;4994230;28;20227;-80
2021/12/30 01:07:23;;;;;;;254.13;236.33;;;11.60;99.90;;;;;;5002874;28;20280;-80
2021/12/30 01:09:49;;;;;;;252.90;235.27;;;11.70;99.90;;;;;;4989963;28;20205;-80
2021/12/30 01:12:15;;;;;;;252.37;234.63;;;11.70;99.90;;;;;;4986827;28;20221;-81
2021/12/30 01:14:46;;;;;;;250.13;232.90;;;11.70;99.90;;;;;;4987859;28;20204;-81
2021/12/30 01:18:19;;;;;;;251.30;233.53;;;11.70;99.90;;;;;;5011029;28;20234;-81
2021/12/30 01:19:57;;;;;;;253.67;235.40;;;11.70;99.90;;;;;;4998966;28;20197;-79
2021/12/30 01:22:27;;;;;;;251.57;233.97;;;11.80;99.90;;;;;;5005363;28;20239;-80
2021/12/30 01:24:53;;;;;;;250.83;233.00;;;11.80;99.90;;;;;;5004858;28;20220;-81
2021/12/30 01:27:20;;;;;;;251.60;234.83;;;11.80;99.90;;;;;;5003270;28;20216;-80
2021/12/30 01:29:47;;;;;;;250.93;233.20;;;11.80;99.90;;;;;;4990882;28;20187;-80
2021/12/30 01:32:13;;;;;;;248.97;231.70;;;11.90;99.90;;;;;;5003967;28;20200;-81
2021/12/30 01:34:39;;;;;;;248.77;232.00;;;11.90;99.90;;;;;;5000894;28;20205;-80
2021/12/30 01:37:05;;;;;;;251.37;234.43;;;11.90;99.90;;;;;;5002117;28;20196;-81
2021/12/30 01:39:33;;;;;;;248.77;231.83;;;11.90;99.90;;;;;;4992867;28;20187;-80
2021/12/30 01:41:59;;;;;;;248.70;231.40;;;11.90;99.90;;;;;;4987402;28;20268;-80
2021/12/30 01:44:25;;;;;;;246.60;230.37;;;11.90;99.90;;;;;;5003842;28;20213;-81
2021/12/30 01:46:51;;;;;;;249.03;232.40;;;12.00;99.90;;;;;;5002126;28;20209;-81
2021/12/30 01:49:18;;;;;;;248.87;232.67;;;12.00;99.90;;;;;;5001729;28;20231;-80
2021/12/30 01:51:44;;;;;;;244.97;228.33;;;12.00;99.90;;;;;;5001103;28;20204;-80
2021/12/30 01:54:11;;;;;;;247.83;231.43;;;12.00;99.90;;;;;;4986672;28;20188;-81
2021/12/30 01:56:37;;;;;;;242.63;226.30;;;12.00;99.90;;;;;;5004791;28;20217;-81
2021/12/30 01:59:03;;;;;;;246.77;230.40;;;12.00;99.90;;;;;;4986527;28;20208;-81
2021/12/30 02:01:30;;;;;;;248.37;231.80;;;12.00;99.90;;;;;;5004933;28;20192;-80
2021/12/30 02:03:56;;;;;;;240.20;224.63;;;12.00;99.90;;;;;;5022989;28;20229;-82
2021/12/30 02:06:22;;;;;;;241.70;225.37;;;12.00;99.90;;;;;;5020417;28;20236;-81
2021/12/30 02:08:49;;;;;;;237.10;221.57;;;12.10;99.90;;;;;;5019854;28;20195;-81
2021/12/30 02:11:16;;;;;;;239.93;224.37;;;12.10;99.90;;;;;;5023028;28;21022;-80
2021/12/30 02:13:43;;;;;;;238.43;223.33;;;12.10;99.90;;;;;;5020449;28;20188;-79
2021/12/30 02:16:08;;;;;;;238.07;222.87;;;12.10;99.90;;;;;;5004202;28;20280;-80
2021/12/30 02:18:34;;;;;;;236.70;221.43;;;12.10;99.90;;;;;;5003675;28;20713;-82
2021/12/30 02:21:01;;;;;;;234.77;220.13;;;12.10;99.90;;;;;;4987983;28;20208;-80
2021/12/30 02:23:30;;;;;;;236.40;221.63;;;12.10;99.90;;;;;;5003583;28;20205;-81
2021/12/30 02:26:03;;;;;;;233.80;219.10;;;12.20;99.90;;;;;;5021676;28;20201;-81
2021/12/30 02:28:31;;;;;;;235.03;220.10;;;12.20;99.90;;;;;;5002656;28;20569;-81
2021/12/30 02:31:03;;;;;;;230.83;216.23;;;12.20;99.90;;;;;;5006962;28;20277;-81
2021/12/30 02:33:28;;;;;;;234.43;219.43;;;12.30;99.90;;;;;;5003170;28;20184;-81
2021/12/30 02:35:55;;;;;;;230.53;216.33;;;12.20;99.90;;;;;;5019827;28;20185;-81
2021/12/30 02:38:22;;;;;;;229.33;215.03;;;12.30;99.90;;;;;;4986944;28;20194;-81
2021/12/30 02:40:51;;;;;;;229.53;215.40;;;12.30;99.90;;;;;;5022247;28;20733;-81
2021/12/30 02:43:23;;;;;;;228.90;214.83;;;12.30;99.90;;;;;;5021806;28;20628;-81
2021/12/30 02:45:49;;;;;;;228.03;213.70;;;12.30;99.90;;;;;;5003526;28;20602;-81
2021/12/30 02:48:26;;;;;;;223.60;209.60;;;12.30;99.90;;;;;;5011273;28;20196;-81
2021/12/30 02:50:56;;;;;;;224.87;211.20;;;12.40;99.90;;;;;;5003153;28;20220;-81
2021/12/30 02:53:22;;;;;;;224.30;210.40;;;12.40;99.90;;;;;;5022104;28;20272;-81
2021/12/30 02:55:49;;;;;;;225.40;211.30;;;12.40;99.90;;;;;;5021998;28;21955;-79
2021/12/30 02:58:15;;;;;;;223.63;210.17;;;12.40;99.90;;;;;;5020727;28;20785;-80
2021/12/30 03:00:42;;;;;;;227.50;213.03;;;12.40;99.90;;;;;;4999404;28;20253;-80
2021/12/30 03:03:15;;;;;;;229.37;215.03;;;12.40;99.90;;;;;;5004010;28;20319;-81
2021/12/30 03:05:41;;;;;;;229.40;215.07;;;12.50;99.90;;;;;;5002751;28;20217;-81
2021/12/30 03:08:07;;;;;;;231.83;217.23;;;12.50;99.90;;;;;;4969052;28;20201;-80
2021/12/30 03:10:33;;;;;;;235.40;220.80;;;12.40;99.90;;;;;;5001115;28;20198;-81
2021/12/30 03:13:04;;;;;;;231.67;216.73;;;12.40;99.90;;;;;;4984793;28;20209;-80
2021/12/30 03:15:32;;;;;;;238.53;223.43;;;12.40;99.90;;;;;;5001255;28;20656;-81
2021/12/30 03:17:58;;;;;;;241.33;226.00;;;12.40;99.90;;;;;;5014039;28;20204;-80
2021/12/30 03:20:24;;;;;;;245.13;229.10;;;12.40;99.90;;;;;;4997652;28;20201;-81
2021/12/30 03:22:49;;;;;;;247.43;231.83;;;12.40;99.90;;;;;;5014975;28;20573;-81
2021/12/30 03:25:16;;;;;;;248.53;232.70;;;12.40;99.90;;;;;;5000167;28;20222;-81
2021/12/30 03:27:42;;;;;;;258.27;242.13;;;12.40;99.90;;;;;;4998436;28;21169;-81
2021/12/30 03:30:12;;;;;;;270.70;253.43;;;12.40;99.90;;;;;;4984006;28;20538;-81
2021/12/30 03:32:38;;;;;;;277.50;260.00;;;12.30;99.90;;;;;;4998406;28;20197;-81
2021/12/30 03:35:05;;;;;;;288.73;269.33;;;12.30;99.90;;;;;;5002823;28;20201;-80
2021/12/30 03:37:31;;;;;;;291.30;272.27;;;12.30;99.90;;;;;;4983395;28;20236;-81
2021/12/30 03:39:57;;;;;;;295.33;276.00;;;12.30;99.90;;;;;;4985038;28;20221;-79
2021/12/30 03:42:22;;;;;;;298.13;278.53;;;12.30;99.90;;;;;;4999320;28;20225;-78
2021/12/30 03:44:49;;;;;;;302.73;282.77;;;12.30;99.90;;;;;;5001953;28;20220;-79
2021/12/30 03:47:18;;;;;;;299.40;279.73;;;12.30;99.90;;;;;;5001215;28;20986;-80
2021/12/30 03:49:46;;;;;;;303.37;282.87;;;12.30;99.90;;;;;;4991839;28;20623;-81
2021/12/30 03:52:15;;;;;;;303.20;282.63;;;12.30;99.90;;;;;;4985652;28;20209;-80
2021/12/30 03:54:42;;;;;;;305.73;285.23;;;12.30;99.90;;;;;;5019381;28;20241;-79
2021/12/30 03:57:07;;;;;;;307.70;287.00;;;12.30;99.90;;;;;;5002258;28;20220;-82
2021/12/30 03:59:33;;;;;;;301.83;281.43;;;12.20;99.90;;;;;;5022138;28;20236;-80
2021/12/30 04:01:59;;;;;;;300.27;280.60;;;12.20;99.90;;;;;;5003170;28;20188;-81
2021/12/30 04:04:24;;;;;;;300.60;279.97;;;12.20;99.90;;;;;;4987620;28;20230;-81
2021/12/30 04:06:50;;;;;;;305.40;284.50;;;12.20;99.90;;;;;;4994273;28;20859;-81
2021/12/30 04:09:16;;;;;;;301.90;281.43;;;12.20;99.90;;;;;;4987018;28;20697;-80
2021/12/30 04:11:41;;;;;;;305.73;284.53;;;12.10;99.90;;;;;;4985535;28;20702;-81
2021/12/30 04:14:07;;;;;;;301.97;281.07;;;12.10;99.90;;;;;;4988924;28;20225;-81
2021/12/30 04:16:34;;;;;;;304.03;283.27;;;12.10;99.90;;;;;;4986983;28;20194;-80
2021/12/30 04:19:01;;;;;;;301.13;280.50;;;12.00;99.90;;;;;;5004126;28;20285;-81
2021/12/30 04:21:27;;;;;;;298.97;278.70;;;12.00;99.90;;;;;;5003146;28;20206;-80
2021/12/30 04:23:52;;;;;;;301.33;280.57;;;12.00;99.90;;;;;;5002744;28;20217;-81
2021/12/30 04:26:18;;;;;;;299.43;278.97;;;12.00;99.90;;;;;;5009684;28;20994;-80
2021/12/30 04:28:44;;;;;;;304.20;282.93;;;12.00;99.90;;;;;;5001029;28;20669;-81
2021/12/30 04:31:10;;;;;;;301.73;281.13;;;11.90;99.90;;;;;;5001157;28;20185;-80
2021/12/30 04:33:36;;;;;;;300.80;280.13;;;11.90;99.90;;;;;;5002793;28;20204;-81
2021/12/30 04:36:03;;;;;;;305.53;283.00;;;11.90;99.90;;;;;;5002106;28;20224;-81
2021/12/30 04:38:30;;;;;;;300.17;278.80;;;11.90;99.90;;;;;;5004092;28;20273;-82
2021/12/30 04:40:57;;;;;;;315.90;293.90;;;11.90;99.90;;;;;;5016964;28;20189;-80
2021/12/30 04:43:23;;;;;;;312.73;290.83;;;11.90;99.90;;;;;;4986946;28;20494;-81
2021/12/30 04:45:49;;;;;;;304.13;283.27;;;12.00;99.90;;;;;;5009836;28;20224;-80
2021/12/30 04:48:16;;;;;;;299.90;278.90;;;11.90;99.90;;;;;;5001998;28;20812;-80
2021/12/30 04:50:44;;;;;;;292.23;272.43;;;11.90;99.90;;;;;;4987348;28;20193;-80
2021/12/30 04:53:11;;;;;;;284.47;265.40;;;11.90;99.90;;;;;;4999769;28;20209;-81
2021/12/30 04:55:36;;;;;;;277.27;259.13;;;12.00;99.90;;;;;;5002365;28;20248;-81
2021/12/30 04:58:02;;;;;;;278.93;260.67;;;12.00;99.90;;;;;;4999241;28;20237;-81
2021/12/30 05:00:28;;;;;;;277.23;258.93;;;12.10;99.90;;;;;;4987978;28;20284;-80
2021/12/30 05:05:19;;;;;;;248.77;233.00;;;12.10;99.90;;;;;;5002426;28;20613;-81
2021/12/30 05:07:45;;;;;;;236.00;220.53;;;12.20;99.90;;;;;;5001711;28;20197;-81
2021/12/30 05:10:11;;;;;;;228.47;213.77;;;12.20;99.90;;;;;;4992734;28;20202;-81
2021/12/30 05:12:36;;;;;;;219.20;204.80;;;12.30;99.90;;;;;;5019643;28;20303;-81
2021/12/30 05:15:02;;;;;;;224.73;210.23;;;12.40;99.90;;;;;;4968507;28;20227;-81
2021/12/30 05:17:29;;;;;;;217.13;202.87;;;12.40;99.90;;;;;;5017251;28;20200;-81
2021/12/30 05:19:55;;;;;;;218.57;204.47;;;12.40;99.90;;;;;;4984936;28;20295;-80
2021/12/30 05:22:21;;;;;;;219.53;205.10;;;12.50;99.90;;;;;;5002129;28;20299;-79
2021/12/30 05:24:46;;;;;;;211.27;197.47;;;12.50;99.90;;;;;;4985741;28;20229;-81
2021/12/30 05:27:12;;;;;;;207.17;194.00;;;12.50;99.90;;;;;;4983032;28;20205;-81
2021/12/30 05:29:38;;;;;;;205.73;192.83;;;12.50;99.90;;;;;;5000077;28;20621;-80
2021/12/30 05:32:04;;;;;;;204.13;191.47;;;12.50;99.90;;;;;;5002435;28;20191;-82
2021/12/30 05:34:29;;;;;;;203.27;190.03;;;12.50;99.90;;;;;;5001126;28;20745;-81
2021/12/30 05:36:55;;;;;;;200.50;187.63;;;12.50;99.90;;;;;;5000890;28;20289;-81
2021/12/30 05:39:21;;;;;;;206.40;193.67;;;12.50;99.90;;;;;;5002054;28;20193;-81
2021/12/30 05:41:46;;;;;;;196.90;184.50;;;12.50;99.90;;;;;;4985862;28;20202;-79
2021/12/30 05:44:12;;;;;;;201.43;189.40;;;12.60;99.90;;;;;;4968860;28;20238;-81
2021/12/30 05:46:38;;;;;;;198.23;185.80;;;12.60;99.90;;;;;;4969673;28;20194;-80
2021/12/30 05:49:03;;;;;;;214.07;200.40;;;12.60;99.90;;;;;;4970378;28;20186;-82
2021/12/30 05:51:29;;;;;;;216.63;203.03;;;12.60;99.90;;;;;;5001063;28;22302;-82
2021/12/30 05:53:55;;;;;;;233.77;220.03;;;12.60;99.90;;;;;;5003905;28;20406;-81
2021/12/30 05:56:21;;;;;;;239.77;224.77;;;12.50;99.90;;;;;;4983265;28;20213;-80
2021/12/30 05:58:46;;;;;;;248.80;233.60;;;12.60;99.90;;;;;;5007562;28;20199;-80
2021/12/30 06:01:13;;;;;;;265.13;248.63;;;12.60;99.90;;;;;;5001814;28;20238;-80
2021/12/30 06:03:38;;;;;;;272.50;255.40;;;12.60;99.90;;;;;;5001508;28;20666;-81
2021/12/30 06:06:04;;;;;;;279.87;262.83;;;12.50;99.90;;;;;;4971950;28;20202;-81
2021/12/30 06:08:30;;;;;;;281.07;263.97;;;12.50;99.90;;;;;;4987909;28;20187;-81
2021/12/30 06:10:55;;;;;;;288.23;269.87;;;12.50;99.90;;;;;;4993815;28;20211;-80
2021/12/30 06:13:21;;;;;;;291.30;273.33;;;12.50;99.90;;;;;;5001780;28;20709;-82
2021/12/30 06:15:47;;;;;;;294.60;275.87;;;12.50;99.90;;;;;;4984474;28;20197;-82
2021/12/30 06:18:12;;;;;;;303.87;284.90;;;12.40;99.90;;;;;;4987103;28;20202;-82
2021/12/30 06:20:38;;;;;;;312.57;293.07;;;12.50;99.90;;;;;;5002948;28;20323;-82
2021/12/30 06:23:04;;;;;;;310.33;290.60;;;12.40;99.90;;;;;;4985371;28;20205;-81
2021/12/30 06:25:29;;;;;;;330.43;309.27;;;12.50;99.90;;;;;;4983504;28;20305;-82
2021/12/30 06:27:56;;;;;;;327.20;305.90;;;12.40;99.90;;;;;;5000659;28;20209;-81
2021/12/30 06:30:21;;;;;;;342.10;319.77;;;12.40;99.90;;;;;;5018431;28;20200;-80
2021/12/30 06:32:47;;;;;;;347.00;323.90;;;12.40;99.90;;;;;;5002532;28;20181;-81
2021/12/30 06:35:13;;;;;;;361.33;337.13;;;12.40;99.90;;;;;;4969102;28;20201;-81
2021/12/30 06:37:39;;;;;;;369.30;344.40;;;12.40;99.90;;;;;;4983481;28;20221;-81
2021/12/30 06:40:07;;;;;;;364.57;339.57;;;12.40;99.90;;;;;;5017895;28;20194;-82
2021/12/30 06:42:33;;;;;;;371.60;347.10;;;12.40;99.90;;;;;;4999882;28;20296;-80
2021/12/30 06:45:00;;;;;;;359.37;335.07;;;12.40;99.90;;;;;;5002413;28;20693;-81
2021/12/30 06:47:26;;;;;;;372.33;347.63;;;12.40;99.90;;;;;;4999974;28;20276;-80
2021/12/30 06:49:58;;;;;;;528.53;490.50;;;12.40;99.90;;;;;;4985153;28;20205;-81
2021/12/30 06:52:24;;;;;;;369.90;344.17;;;12.40;99.90;;;;;;4986344;28;20202;-80
2021/12/30 06:54:49;;;;;;;371.50;345.67;;;12.40;99.90;;;;;;4990887;28;20201;-80
2021/12/30 06:57:15;;;;;;;367.70;342.40;;;12.40;99.90;;;;;;4999625;28;20222;-79
2021/12/30 06:59:41;;;;;;;367.17;341.70;;;12.40;99.90;;;;;;4987501;28;20907;-82
2021/12/30 07:02:07;;;;;;;366.00;340.13;;;12.40;99.90;;;;;;4989057;28;20640;-81
2021/12/30 07:04:33;;;;;;;353.90;329.63;;;12.40;99.90;;;;;;5002766;28;20219;-80
2021/12/30 07:06:59;;;;;;;332.80;310.50;;;12.40;99.90;;;;;;4999977;28;20192;-81
2021/12/30 07:09:25;;;;;;;286.93;267.80;;;12.40;99.90;;;;;;5002406;28;20193;-81
2021/12/30 07:11:51;;;;;;;258.23;241.40;;;12.40;99.90;;;;;;5003942;28;20700;-82
2021/12/30 07:14:18;;;;;;;243.73;227.33;;;12.40;99.90;;;;;;4987595;28;20197;-81
2021/12/30 07:16:44;;;;;;;234.83;219.33;;;12.40;99.90;;;;;;5001736;28;20606;-81
2021/12/30 07:19:11;;;;;;;217.30;203.23;;;12.40;99.90;;;;;;5021325;28;20191;-80
2021/12/30 07:21:37;;;;;;;219.37;205.10;;;12.40;99.90;;;;;;4970801;28;20211;-81
2021/12/30 07:24:02;;;;;;;211.70;197.60;;;12.40;99.90;;;;;;5004782;28;20223;-81
2021/12/30 07:26:28;;;;;;;201.77;188.07;;;12.40;99.90;;;;;;5004171;28;20657;-81
2021/12/30 07:28:54;;;;;;;199.53;186.37;;;12.40;99.90;;;;;;4980066;28;20565;-81
2021/12/30 07:31:19;;;;;;;200.10;186.53;;;12.50;99.90;;;;;;4993079;28;20676;-79
2021/12/30 07:33:45;;;;;;;206.43;191.90;;;12.50;99.90;;;;;;5010482;28;20235;-80
2021/12/30 07:36:11;;;;;;;201.03;186.80;;;12.40;99.90;;;;;;5010314;28;20201;-80
2021/12/30 07:38:37;;;;;;;200.03;185.87;;;12.50;99.90;;;;;;4992600;28;20188;-81
2021/12/30 07:41:04;;;;;;;199.87;185.77;;;12.50;99.90;;;;;;4993351;28;20292;-81
2021/12/30 07:43:31;;;;;;;197.80;183.80;;;12.50;99.90;;;;;;5008839;28;20549;-81
2021/12/30 07:45:57;;;;;;;189.50;175.20;;;12.50;99.90;;;;;;5011648;28;20349;-80
2021/12/30 07:48:24;;;;;;;190.33;175.97;;;12.50;99.90;;;;;;5008622;28;20279;-81
2021/12/30 07:50:50;;;;;;;191.27;177.10;;;12.50;99.90;;;;;;5009421;28;20188;-81
2021/12/30 07:53:16;;;;;;;194.13;180.43;;;12.50;99.90;;;;;;5011696;28;20394;-80
2021/12/30 07:55:42;;;;;;;191.60;178.27;;;12.40;99.90;;;;;;5026501;28;20269;-81
2021/12/30 07:58:07;;;;;;;188.77;175.07;;;12.40;99.90;;;;;;4994549;28;20220;-80
2021/12/30 08:00:33;;;;;;;188.13;173.90;;;12.40;99.90;;;;;;4992812;28;20233;-82
2021/12/30 08:02:59;;;;;;;183.03;167.27;;;12.40;99.90;;;;;;5009484;28;20280;-80
2021/12/30 08:05:27;;;;;;;181.03;167.07;;;12.40;99.90;;;;;;4991797;28;20321;-81
2021/12/30 08:07:53;;;;;;;186.43;171.40;;;12.40;99.90;;;;;;5009717;28;20189;-81
2021/12/30 08:10:19;;;;;;;175.67;161.43;;;12.50;99.90;;;;;;5006942;28;20192;-81
2021/12/30 08:12:46;;;;;;;175.90;161.93;;;12.50;99.90;;;;;;5007641;28;20213;-80
2021/12/30 08:15:13;;;;;;;170.63;157.60;;;12.50;99.90;;;;;;5027955;28;20198;-81
2021/12/30 08:17:40;;;;;;;172.63;159.37;;;12.50;99.90;;;;;;4994210;28;20209;-80
2021/12/30 08:20:08;;;;;;;173.97;160.70;;;12.50;99.90;;;;;;5027085;28;20567;-81
2021/12/30 08:22:34;;;;;;;170.53;157.73;;;12.50;99.90;;;;;;5029957;28;20192;-81
2021/12/30 08:25:00;;;;;;;163.27;150.00;;;12.60;99.90;;;;;;5008380;28;20214;-82
2021/12/30 08:27:26;;;;;;;161.80;149.07;;;12.60;99.90;;;;;;5011836;28;20209;-82
2021/12/30 08:29:52;;;;;;;160.30;147.87;;;12.60;99.90;;;;;;5017968;28;20205;-82
2021/12/30 08:32:18;;;;;;;160.90;147.83;;;12.70;99.90;;;;;;5010516;28;20191;-81
2021/12/30 08:34:45;;;;;;;157.40;145.53;;;12.70;99.90;;;;;;4993268;28;20885;-80
2021/12/30 08:37:12;;;;;;;150.53;139.37;;;12.80;99.90;;;;;;5031418;28;20194;-82
2021/12/30 08:39:40;;;;;;;154.37;143.27;;;12.80;99.90;;;;;;5008142;28;20196;-81
2021/12/30 08:42:16;;;;;;;148.93;137.53;;;12.80;99.90;;;;;;5010538;28;20215;-81
2021/12/30 08:44:42;;;;;;;151.00;139.10;;;12.90;99.90;;;;;;5023665;28;20629;-81
2021/12/30 08:47:07;;;;;;;153.60;141.77;;;12.90;99.90;;;;;;5023619;28;20280;-81
2021/12/30 08:49:33;;;;;;;143.07;131.93;;;13.00;99.90;;;;;;4999293;28;20204;-81
2021/12/30 08:51:59;;;;;;;143.57;132.90;;;12.90;99.90;;;;;;4993332;28;20639;-81
2021/12/30 08:54:24;;;;;;;140.83;130.73;;;13.00;99.90;;;;;;5006938;28;20613;-81
2021/12/30 08:56:50;;;;;;;141.03;130.30;;;13.00;99.90;;;;;;5021036;28;20224;-80
2021/12/30 08:59:16;;;;;;;140.27;129.37;;;13.00;99.90;;;;;;4973141;28;20686;-81
2021/12/30 09:01:42;;;;;;;138.73;128.13;;;13.10;99.90;;;;;;4997040;28;20236;-82
2021/12/30 09:04:07;;;;;;;140.13;129.80;;;13.10;99.90;;;;;;5020762;28;20220;-82
2021/12/30 09:06:33;;;;;;;139.10;129.20;;;13.10;99.90;;;;;;5005112;28;20678;-82
2021/12/30 09:08:59;;;;;;;137.70;127.17;;;13.10;99.90;;;;;;4996474;28;20570;-79
2021/12/30 09:11:25;;;;;;;134.23;124.67;;;13.20;99.90;;;;;;4991980;28;20192;-82
2021/12/30 09:13:50;;;;;;;137.73;127.37;;;13.20;99.90;;;;;;5004781;28;20196;-81
2021/12/30 09:16:16;;;;;;;132.73;123.33;;;13.20;99.90;;;;;;4991521;28;20967;-82
2021/12/30 09:18:42;;;;;;;134.93;124.17;;;13.30;99.90;;;;;;4991002;28;20185;-82
2021/12/30 09:21:08;;;;;;;134.17;123.93;;;13.30;99.90;;;;;;4990403;28;20199;-83
2021/12/30 09:23:34;;;;;;;132.63;122.70;;;13.30;99.90;;;;;;4974846;28;20189;-81
2021/12/30 09:25:59;;;;;;;133.67;123.97;;;13.30;99.90;;;;;;4989768;28;20224;-82
2021/12/30 09:28:25;;;;;;;130.43;121.33;;;13.30;99.90;;;;;;4990606;28;20213;-80
2021/12/30 09:30:52;;;;;;;130.53;121.87;;;13.30;99.90;;;;;;5023230;28;20202;-82
2021/12/30 09:33:18;;;;;;;132.93;123.37;;;13.20;99.90;;;;;;5004956;28;20201;-81
2021/12/30 09:35:47;;;;;;;133.13;123.90;;;13.20;99.90;;;;;;5007260;28;20193;-79
2021/12/30 09:38:13;;;;;;;130.80;121.53;;;13.20;99.90;;;;;;5005599;28;20225;-82
2021/12/30 09:40:38;;;;;;;131.03;121.80;;;13.20;99.90;;;;;;4992525;28;20270;-81
2021/12/30 09:43:04;;;;;;;127.40;118.93;;;13.20;99.90;;;;;;5022770;28;20241;-81
2021/12/30 09:45:33;;;;;;;126.27;117.27;;;13.20;99.90;;;;;;5021449;28;20229;-83
2021/12/30 09:48:04;;;;;;;127.13;118.80;;;13.20;99.90;;;;;;5008596;28;20197;-82
2021/12/30 09:50:34;;;;;;;127.67;118.43;;;13.10;99.90;;;;;;5021595;28;20184;-83
2021/12/30 09:53:01;;;;;;;127.40;118.80;;;13.20;99.90;;;;;;5024643;28;20673;-83
2021/12/30 09:55:26;;;;;;;126.93;118.10;;;13.20;99.90;;;;;;5006805;28;20641;-82
2021/12/30 09:57:53;;;;;;;129.67;120.77;;;13.20;99.90;;;;;;5014364;28;20206;-82
2021/12/30 10:00:19;;;;;;;127.00;118.00;;;13.20;99.90;;;;;;4988272;28;20225;-82
2021/12/30 10:02:46;;;;;;;122.40;114.03;;;13.20;99.90;;;;;;5008654;28;20188;-81
2021/12/30 10:05:26;;;;;;;123.77;115.13;;;13.20;99.90;;;;;;5008656;28;20219;-81
2021/12/30 10:08:32;;;;;;;121.93;113.80;;;13.20;99.90;;;;;;5001169;28;20720;-80
2021/12/30 10:11:00;;;;;;;120.30;111.80;;;13.20;99.90;;;;;;4911839;29;20772;-83
2021/12/30 10:13:34;;;;;;;122.37;114.37;;;13.20;99.90;;;;;;4935605;28;20278;-81
2021/12/30 10:16:04;;;;;;;120.93;112.93;;;13.20;99.90;;;;;;4975351;28;20662;-82
2021/12/30 10:18:50;;;;;;;122.13;113.77;;;13.10;99.90;;;;;;5023033;28;20192;-81
2021/12/30 10:21:26;;;;;;;122.23;114.17;;;13.10;99.90;;;;;;5004760;28;20193;-83
2021/12/30 10:23:58;;;;;;;123.03;114.37;;;13.10;99.90;;;;;;5019789;28;20264;-83
2021/12/30 10:26:25;;;;;;;123.47;114.77;;;13.10;99.90;;;;;;5004639;28;20247;-81
2021/12/30 10:28:56;;;;;;;122.63;114.20;;;13.10;99.90;;;;;;5004193;28;20271;-83
2021/12/30 10:31:27;;;;;;;123.70;114.80;;;13.10;99.90;;;;;;5021391;28;20654;-82
2021/12/30 10:34:04;;;;;;;123.00;114.63;;;13.00;99.90;;;;;;5023216;28;20186;-80
2021/12/30 10:36:38;;;;;;;123.03;115.33;;;13.00;99.90;;;;;;5012009;28;20223;-80
2021/12/30 10:39:21;;;;;;;125.47;117.33;;;13.00;99.90;;;;;;5022538;28;20262;-82
2021/12/30 10:41:50;;;;;;;125.93;117.57;;;13.00;99.90;;;;;;5021004;28;20204;-80
2021/12/30 10:44:17;;;;;;;128.27;118.87;;;13.00;99.90;;;;;;5021908;28;20254;-82
2021/12/30 10:46:43;;;;;;;125.57;117.40;;;13.00;99.90;;;;;;4989943;28;20178;-82
2021/12/30 10:49:27;;;;;;;128.60;120.00;;;13.00;99.90;;;;;;5006109;28;20691;-81
2021/12/30 10:51:57;;;;;;;129.50;120.70;;;13.00;99.90;;;;;;5023139;28;20231;-83
2021/12/30 10:54:30;;;;;;;128.20;119.50;;;12.90;99.90;;;;;;5013061;28;20226;-82
2021/12/30 10:57:02;;;;;;;130.50;121.73;;;12.90;99.90;;;;;;5005686;28;20848;-81
2021/12/30 10:59:29;;;;;;;132.00;122.13;;;12.90;99.90;;;;;;5022355;28;20292;-83
2021/12/30 11:02:03;;;;;;;131.10;122.30;;;12.90;99.90;;;;;;5019063;28;20228;-83
2021/12/30 11:04:40;;;;;;;132.13;123.20;;;12.90;99.90;;;;;;5021896;28;20211;-82
2021/12/30 11:07:09;;;;;;;129.00;120.53;;;12.90;99.90;;;;;;5027144;28;20672;-81
2021/12/30 11:09:35;;;;;;;134.53;125.50;;;12.90;99.90;;;;;;5004419;28;20532;-81
2021/12/30 11:12:05;;;;;;;131.53;122.30;;;12.90;99.90;;;;;;5004783;28;20227;-80
2021/12/30 11:14:34;;;;;;;134.80;126.13;;;12.90;99.90;;;;;;5003975;28;20200;-82
2021/12/30 11:17:18;;;;;;;129.40;120.37;;;12.90;99.90;;;;;;5009096;28;20562;-81
2021/12/30 11:19:55;;;;;;;126.30;118.00;;;13.00;99.90;;;;;;5022509;28;20206;-82
2021/12/30 11:22:23;;;;;;;133.27;124.37;;;13.00;99.90;;;;;;5006870;28;20188;-82
2021/12/30 11:24:53;;;;;;;130.77;122.43;;;13.00;99.90;;;;;;4988853;28;20782;-82
2021/12/30 11:27:20;;;;;;;128.37;120.07;;;13.10;99.90;;;;;;5005523;28;20201;-82
2021/12/30 11:29:47;;;;;;;131.67;123.30;;;13.10;99.90;;;;;;4993145;28;20637;-82
2021/12/30 11:32:18;;;;;;;131.57;121.97;;;13.10;99.90;;;;;;4988915;28;20227;-82
2021/12/30 11:34:47;;;;;;;130.30;122.00;;;13.20;99.90;;;;;;5005814;28;20584;-82
2021/12/30 11:37:14;;;;;;;128.27;120.47;;;13.20;99.90;;;;;;5022027;28;20273;-82
2021/12/30 11:39:45;;;;;;;130.17;122.20;;;13.20;99.90;;;;;;4991958;28;20242;-81
2021/12/30 11:42:21;;;;;;;127.77;119.80;;;13.20;99.90;;;;;;5005164;28;20271;-83
2021/12/30 11:44:54;;;;;;;129.20;121.37;;;13.20;99.90;;;;;;5006792;28;20213;-82
2021/12/30 11:47:34;;;;;;;129.90;121.53;;;13.20;99.90;;;;;;5020889;28;20201;-81
2021/12/30 11:50:08;;;;;;;130.60;121.90;;;13.20;99.90;;;;;;5022108;28;20280;-82
2021/12/30 11:53:23;;;;;;;132.27;124.07;;;13.20;99.90;;;;;;5020798;28;20192;-82
2021/12/30 11:55:59;;;;;;;129.63;121.37;;;13.20;99.90;;;;;;5015250;28;20355;-81
2021/12/30 11:58:40;;;;;;;129.30;121.47;;;13.20;99.90;;;;;;5017271;28;20275;-80
2021/12/30 12:01:12;;;;;;;126.80;118.53;;;13.20;99.90;;;;;;5018898;28;20319;-82
2021/12/30 12:03:43;;;;;;;127.50;119.10;;;13.20;99.90;;;;;;5021773;28;20253;-82
2021/12/30 12:06:24;;;;;;;132.80;123.67;;;13.10;99.90;;;;;;5011282;28;20288;-80
2021/12/30 12:08:54;;;;;;;133.43;124.83;;;13.20;99.90;;;;;;5017709;28;20612;-82
2021/12/30 12:11:31;;;;;;;130.53;122.13;;;13.20;99.90;;;;;;5019049;28;20190;-80
2021/12/30 12:14:16;;;;;;;134.70;125.97;;;13.10;99.90;;;;;;5004855;28;20189;-82